sensor_id;sensor_type;location;lat;lon;timestamp;P1;durP1;ratioP1;P2;durP2;ratioP2
13291;SDS011;6714;53.056;8.690;2022-07-25T00:02:16;8.17;;;7.47;;
13291;SDS011;6714;53.056;8.690;2022-07-25T00:04:58;7.47;;;6.77;;
13291;SDS011;6714;53.056;8.690;2022-07-25T00:07:41;8.80;;;7.93;;
13291;SDS011;6714;53.056;8.690;2022-07-25T00:10:23;8.83;;;8.13;;
13291;SDS011;6714;53.056;8.690;2022-07-25T00:13:07;7.47;;;6.87;;
13291;SDS011;6714;53.056;8.690;2022-07-25T00:15:49;8.60;;;7.90;;
13291;SDS011;6714;53.056;8.690;2022-07-25T00:18:31;8.80;;;8.10;;
13291;SDS011;6714;53.056;8.690;2022-07-25T00:21:13;7.33;;;6.73;;
13291;SDS011;6714;53.056;8.690;2022-07-25T00:23:55;8.33;;;7.60;;
13291;SDS011;6714;53.056;8.690;2022-07-25T00:26:37;6.97;;;6.47;;
13291;SDS011;6714;53.056;8.690;2022-07-25T00:29:21;8.20;;;7.50;;
13291;SDS011;6714;53.056;8.690;2022-07-25T00:32:04;7.60;;;7.00;;
13291;SDS011;6714;53.056;8.690;2022-07-25T00:34:46;8.07;;;7.43;;
13291;SDS011;6714;53.056;8.690;2022-07-25T00:37:28;7.80;;;7.03;;
13291;SDS011;6714;53.056;8.690;2022-07-25T00:40:11;7.73;;;7.07;;
13291;SDS011;6714;53.056;8.690;2022-07-25T00:42:53;8.23;;;7.53;;
13291;SDS011;6714;53.056;8.690;2022-07-25T00:45:36;7.30;;;6.70;;
13291;SDS011;6714;53.056;8.690;2022-07-25T00:48:18;7.90;;;7.20;;
13291;SDS011;6714;53.056;8.690;2022-07-25T00:51:01;8.03;;;7.27;;
13291;SDS011;6714;53.056;8.690;2022-07-25T00:53:43;7.97;;;7.17;;
13291;SDS011;6714;53.056;8.690;2022-07-25T00:56:25;7.07;;;6.37;;
13291;SDS011;6714;53.056;8.690;2022-07-25T00:59:08;8.30;;;7.67;;
13291;SDS011;6714;53.056;8.690;2022-07-25T01:01:51;8.10;;;7.47;;
13291;SDS011;6714;53.056;8.690;2022-07-25T01:04:34;8.27;;;7.57;;
13291;SDS011;6714;53.056;8.690;2022-07-25T01:07:16;7.40;;;6.70;;
13291;SDS011;6714;53.056;8.690;2022-07-25T01:09:58;8.40;;;7.70;;
13291;SDS011;6714;53.056;8.690;2022-07-25T01:12:46;7.67;;;7.00;;
13291;SDS011;6714;53.056;8.690;2022-07-25T01:15:28;8.03;;;7.33;;
13291;SDS011;6714;53.056;8.690;2022-07-25T01:18:12;7.90;;;7.20;;
13291;SDS011;6714;53.056;8.690;2022-07-25T01:20:55;8.00;;;7.37;;
13291;SDS011;6714;53.056;8.690;2022-07-25T01:23:37;7.60;;;7.00;;
13291;SDS011;6714;53.056;8.690;2022-07-25T01:26:20;7.83;;;7.23;;
13291;SDS011;6714;53.056;8.690;2022-07-25T01:29:02;7.67;;;6.97;;
13291;SDS011;6714;53.056;8.690;2022-07-25T01:31:44;7.03;;;6.43;;
13291;SDS011;6714;53.056;8.690;2022-07-25T01:34:26;8.90;;;8.00;;
13291;SDS011;6714;53.056;8.690;2022-07-25T01:37:10;8.13;;;7.43;;
13291;SDS011;6714;53.056;8.690;2022-07-25T01:39:52;8.53;;;7.40;;
13291;SDS011;6714;53.056;8.690;2022-07-25T01:42:34;8.43;;;7.80;;
13291;SDS011;6714;53.056;8.690;2022-07-25T01:45:18;7.70;;;7.10;;
13291;SDS011;6714;53.056;8.690;2022-07-25T01:48:00;8.20;;;7.50;;
13291;SDS011;6714;53.056;8.690;2022-07-25T01:50:42;7.50;;;6.90;;
13291;SDS011;6714;53.056;8.690;2022-07-25T01:53:26;8.63;;;7.93;;
13291;SDS011;6714;53.056;8.690;2022-07-25T01:56:08;7.73;;;6.97;;
13291;SDS011;6714;53.056;8.690;2022-07-25T01:58:51;7.73;;;7.07;;
13291;SDS011;6714;53.056;8.690;2022-07-25T02:01:33;7.63;;;6.70;;
13291;SDS011;6714;53.056;8.690;2022-07-25T02:04:16;6.67;;;6.03;;
13291;SDS011;6714;53.056;8.690;2022-07-25T02:06:58;6.80;;;6.13;;
13291;SDS011;6714;53.056;8.690;2022-07-25T02:09:42;7.07;;;6.53;;
13291;SDS011;6714;53.056;8.690;2022-07-25T02:12:24;7.13;;;6.53;;
13291;SDS011;6714;53.056;8.690;2022-07-25T02:15:06;7.50;;;6.83;;
13291;SDS011;6714;53.056;8.690;2022-07-25T02:17:48;6.53;;;6.07;;
13291;SDS011;6714;53.056;8.690;2022-07-25T02:20:31;7.83;;;7.23;;
13291;SDS011;6714;53.056;8.690;2022-07-25T02:23:13;8.50;;;7.57;;
13291;SDS011;6714;53.056;8.690;2022-07-25T02:25:56;8.00;;;7.30;;
13291;SDS011;6714;53.056;8.690;2022-07-25T02:28:39;7.97;;;7.27;;
13291;SDS011;6714;53.056;8.690;2022-07-25T02:31:21;7.50;;;6.90;;
13291;SDS011;6714;53.056;8.690;2022-07-25T02:34:03;7.90;;;7.10;;
13291;SDS011;6714;53.056;8.690;2022-07-25T02:36:46;8.27;;;7.47;;
13291;SDS011;6714;53.056;8.690;2022-07-25T02:39:28;9.00;;;8.20;;
13291;SDS011;6714;53.056;8.690;2022-07-25T02:42:11;8.80;;;8.03;;
13291;SDS011;6714;53.056;8.690;2022-07-25T02:44:53;8.83;;;6.90;;
13291;SDS011;6714;53.056;8.690;2022-07-25T02:47:35;8.40;;;7.60;;
13291;SDS011;6714;53.056;8.690;2022-07-25T02:50:18;7.50;;;6.80;;
13291;SDS011;6714;53.056;8.690;2022-07-25T02:53:00;7.93;;;7.23;;
13291;SDS011;6714;53.056;8.690;2022-07-25T02:55:42;7.50;;;6.90;;
13291;SDS011;6714;53.056;8.690;2022-07-25T02:58:26;7.67;;;6.97;;
13291;SDS011;6714;53.056;8.690;2022-07-25T03:01:08;7.77;;;7.00;;
13291;SDS011;6714;53.056;8.690;2022-07-25T03:03:50;9.23;;;7.53;;
13291;SDS011;6714;53.056;8.690;2022-07-25T03:06:32;8.23;;;7.43;;
13291;SDS011;6714;53.056;8.690;2022-07-25T03:09:14;7.83;;;7.13;;
13291;SDS011;6714;53.056;8.690;2022-07-25T03:11:56;8.30;;;7.57;;
13291;SDS011;6714;53.056;8.690;2022-07-25T03:14:40;7.97;;;7.17;;
13291;SDS011;6714;53.056;8.690;2022-07-25T03:17:22;8.43;;;7.70;;
13291;SDS011;6714;53.056;8.690;2022-07-25T03:20:05;8.13;;;7.43;;
13291;SDS011;6714;53.056;8.690;2022-07-25T03:22:47;8.03;;;7.30;;
13291;SDS011;6714;53.056;8.690;2022-07-25T03:25:29;8.00;;;7.30;;
13291;SDS011;6714;53.056;8.690;2022-07-25T03:28:12;8.23;;;7.53;;
13291;SDS011;6714;53.056;8.690;2022-07-25T03:30:55;8.00;;;7.23;;
13291;SDS011;6714;53.056;8.690;2022-07-25T03:33:38;8.20;;;7.57;;
13291;SDS011;6714;53.056;8.690;2022-07-25T03:36:20;6.87;;;6.27;;
13291;SDS011;6714;53.056;8.690;2022-07-25T03:39:02;9.63;;;8.63;;
13291;SDS011;6714;53.056;8.690;2022-07-25T03:41:44;7.70;;;7.10;;
13291;SDS011;6714;53.056;8.690;2022-07-25T03:44:26;7.83;;;7.00;;
13291;SDS011;6714;53.056;8.690;2022-07-25T03:47:10;8.40;;;7.40;;
13291;SDS011;6714;53.056;8.690;2022-07-25T03:49:52;7.53;;;6.77;;
13291;SDS011;6714;53.056;8.690;2022-07-25T03:52:34;7.60;;;6.90;;
13291;SDS011;6714;53.056;8.690;2022-07-25T03:55:17;8.27;;;7.47;;
13291;SDS011;6714;53.056;8.690;2022-07-25T03:57:59;7.77;;;7.07;;
13291;SDS011;6714;53.056;8.690;2022-07-25T04:00:41;7.73;;;7.03;;
13291;SDS011;6714;53.056;8.690;2022-07-25T04:03:25;7.33;;;6.73;;
13291;SDS011;6714;53.056;8.690;2022-07-25T04:06:07;7.60;;;6.90;;
13291;SDS011;6714;53.056;8.690;2022-07-25T04:08:49;7.50;;;6.83;;
13291;SDS011;6714;53.056;8.690;2022-07-25T04:11:31;7.40;;;6.70;;
13291;SDS011;6714;53.056;8.690;2022-07-25T04:14:14;8.03;;;7.23;;
13291;SDS011;6714;53.056;8.690;2022-07-25T04:16:57;7.10;;;6.50;;
13291;SDS011;6714;53.056;8.690;2022-07-25T04:19:40;7.63;;;6.83;;
13291;SDS011;6714;53.056;8.690;2022-07-25T04:22:23;7.03;;;6.43;;
13291;SDS011;6714;53.056;8.690;2022-07-25T04:25:05;7.60;;;7.00;;
13291;SDS011;6714;53.056;8.690;2022-07-25T04:27:49;7.53;;;6.83;;
13291;SDS011;6714;53.056;8.690;2022-07-25T04:30:31;8.20;;;7.00;;
13291;SDS011;6714;53.056;8.690;2022-07-25T04:33:13;7.57;;;6.90;;
13291;SDS011;6714;53.056;8.690;2022-07-25T04:35:56;6.30;;;5.80;;
13291;SDS011;6714;53.056;8.690;2022-07-25T04:38:39;6.77;;;6.27;;
13291;SDS011;6714;53.056;8.690;2022-07-25T04:41:21;7.27;;;6.67;;
13291;SDS011;6714;53.056;8.690;2022-07-25T04:44:03;7.20;;;6.60;;
13291;SDS011;6714;53.056;8.690;2022-07-25T04:46:46;7.33;;;6.63;;
13291;SDS011;6714;53.056;8.690;2022-07-25T04:49:29;7.73;;;7.13;;
13291;SDS011;6714;53.056;8.690;2022-07-25T04:52:12;8.43;;;7.00;;
13291;SDS011;6714;53.056;8.690;2022-07-25T04:54:54;7.00;;;6.47;;
13291;SDS011;6714;53.056;8.690;2022-07-25T04:57:37;7.20;;;6.60;;
13291;SDS011;6714;53.056;8.690;2022-07-25T05:00:19;7.47;;;6.87;;
13291;SDS011;6714;53.056;8.690;2022-07-25T05:03:02;6.60;;;6.10;;
13291;SDS011;6714;53.056;8.690;2022-07-25T05:05:44;7.03;;;6.33;;
13291;SDS011;6714;53.056;8.690;2022-07-25T05:08:28;6.83;;;6.23;;
13291;SDS011;6714;53.056;8.690;2022-07-25T05:11:11;7.50;;;6.77;;
13291;SDS011;6714;53.056;8.690;2022-07-25T05:13:53;7.83;;;7.13;;
13291;SDS011;6714;53.056;8.690;2022-07-25T05:16:35;8.37;;;6.60;;
13291;SDS011;6714;53.056;8.690;2022-07-25T05:19:17;8.10;;;7.00;;
13291;SDS011;6714;53.056;8.690;2022-07-25T05:22:00;7.90;;;7.10;;
13291;SDS011;6714;53.056;8.690;2022-07-25T05:24:45;9.27;;;6.80;;
13291;SDS011;6714;53.056;8.690;2022-07-25T05:27:27;7.63;;;6.83;;
13291;SDS011;6714;53.056;8.690;2022-07-25T05:30:10;8.20;;;6.23;;
13291;SDS011;6714;53.056;8.690;2022-07-25T05:32:53;6.67;;;6.13;;
13291;SDS011;6714;53.056;8.690;2022-07-25T05:35:36;6.37;;;5.87;;
13291;SDS011;6714;53.056;8.690;2022-07-25T05:38:18;6.87;;;6.20;;
13291;SDS011;6714;53.056;8.690;2022-07-25T05:41:02;6.80;;;6.20;;
13291;SDS011;6714;53.056;8.690;2022-07-25T05:43:44;9.17;;;6.90;;
13291;SDS011;6714;53.056;8.690;2022-07-25T05:46:27;7.03;;;6.43;;
13291;SDS011;6714;53.056;8.690;2022-07-25T05:49:10;7.77;;;6.50;;
13291;SDS011;6714;53.056;8.690;2022-07-25T05:51:52;6.47;;;5.97;;
13291;SDS011;6714;53.056;8.690;2022-07-25T05:54:34;6.60;;;5.90;;
13291;SDS011;6714;53.056;8.690;2022-07-25T05:57:17;7.23;;;6.47;;
13291;SDS011;6714;53.056;8.690;2022-07-25T06:00:00;6.60;;;6.03;;
13291;SDS011;6714;53.056;8.690;2022-07-25T06:02:42;6.60;;;5.83;;
13291;SDS011;6714;53.056;8.690;2022-07-25T06:05:24;6.03;;;5.47;;
13291;SDS011;6714;53.056;8.690;2022-07-25T06:08:07;6.63;;;5.93;;
13291;SDS011;6714;53.056;8.690;2022-07-25T06:10:49;6.33;;;5.70;;
13291;SDS011;6714;53.056;8.690;2022-07-25T06:13:32;6.50;;;5.90;;
13291;SDS011;6714;53.056;8.690;2022-07-25T06:16:15;5.97;;;5.17;;
13291;SDS011;6714;53.056;8.690;2022-07-25T06:18:57;6.37;;;5.77;;
13291;SDS011;6714;53.056;8.690;2022-07-25T06:21:39;6.70;;;5.97;;
13291;SDS011;6714;53.056;8.690;2022-07-25T06:24:21;7.23;;;6.40;;
13291;SDS011;6714;53.056;8.690;2022-07-25T06:27:03;6.53;;;5.83;;
13291;SDS011;6714;53.056;8.690;2022-07-25T06:29:47;6.77;;;5.90;;
13291;SDS011;6714;53.056;8.690;2022-07-25T06:32:29;5.93;;;5.43;;
13291;SDS011;6714;53.056;8.690;2022-07-25T06:35:11;5.90;;;5.50;;
13291;SDS011;6714;53.056;8.690;2022-07-25T06:37:53;6.10;;;5.50;;
13291;SDS011;6714;53.056;8.690;2022-07-25T06:40:36;6.47;;;5.80;;
13291;SDS011;6714;53.056;8.690;2022-07-25T06:43:18;8.80;;;6.10;;
13291;SDS011;6714;53.056;8.690;2022-07-25T06:46:01;6.13;;;5.53;;
13291;SDS011;6714;53.056;8.690;2022-07-25T06:48:43;5.87;;;5.37;;
13291;SDS011;6714;53.056;8.690;2022-07-25T06:51:26;6.43;;;5.73;;
13291;SDS011;6714;53.056;8.690;2022-07-25T06:54:08;5.80;;;5.27;;
13291;SDS011;6714;53.056;8.690;2022-07-25T06:56:50;5.80;;;5.20;;
13291;SDS011;6714;53.056;8.690;2022-07-25T06:59:32;7.87;;;6.37;;
13291;SDS011;6714;53.056;8.690;2022-07-25T07:02:16;5.70;;;5.20;;
13291;SDS011;6714;53.056;8.690;2022-07-25T07:04:58;5.97;;;5.47;;
13291;SDS011;6714;53.056;8.690;2022-07-25T07:07:40;6.10;;;5.60;;
13291;SDS011;6714;53.056;8.690;2022-07-25T07:10:23;6.03;;;5.60;;
13291;SDS011;6714;53.056;8.690;2022-07-25T07:13:07;6.30;;;5.80;;
13291;SDS011;6714;53.056;8.690;2022-07-25T07:15:49;5.53;;;5.10;;
13291;SDS011;6714;53.056;8.690;2022-07-25T07:18:33;6.07;;;5.57;;
13291;SDS011;6714;53.056;8.690;2022-07-25T07:21:15;5.37;;;4.93;;
13291;SDS011;6714;53.056;8.690;2022-07-25T07:23:58;5.80;;;5.30;;
13291;SDS011;6714;53.056;8.690;2022-07-25T07:26:40;5.40;;;5.00;;
13291;SDS011;6714;53.056;8.690;2022-07-25T07:29:22;5.10;;;4.70;;
13291;SDS011;6714;53.056;8.690;2022-07-25T07:32:05;6.43;;;5.83;;
13291;SDS011;6714;53.056;8.690;2022-07-25T07:34:48;5.93;;;5.43;;
13291;SDS011;6714;53.056;8.690;2022-07-25T07:37:30;5.80;;;5.30;;
13291;SDS011;6714;53.056;8.690;2022-07-25T07:40:13;5.93;;;5.50;;
13291;SDS011;6714;53.056;8.690;2022-07-25T07:42:56;6.03;;;5.57;;
13291;SDS011;6714;53.056;8.690;2022-07-25T07:45:41;5.27;;;4.87;;
13291;SDS011;6714;53.056;8.690;2022-07-25T07:48:23;5.80;;;5.30;;
13291;SDS011;6714;53.056;8.690;2022-07-25T07:51:07;5.53;;;5.13;;
13291;SDS011;6714;53.056;8.690;2022-07-25T07:53:49;5.40;;;5.00;;
13291;SDS011;6714;53.056;8.690;2022-07-25T07:56:49;5.90;;;5.40;;
13291;SDS011;6714;53.056;8.690;2022-07-25T07:59:31;5.80;;;5.32;;
13291;SDS011;6714;53.056;8.690;2022-07-25T08:02:13;6.18;;;5.32;;
13291;SDS011;6714;53.056;8.690;2022-07-25T08:04:56;5.63;;;5.03;;
13291;SDS011;6714;53.056;8.690;2022-07-25T08:07:39;5.88;;;5.22;;
13291;SDS011;6714;53.056;8.690;2022-07-25T08:10:24;5.00;;;4.60;;
13291;SDS011;6714;53.056;8.690;2022-07-25T08:13:13;5.82;;;5.35;;
13291;SDS011;6714;53.056;8.690;2022-07-25T08:15:56;5.45;;;5.05;;
13291;SDS011;6714;53.056;8.690;2022-07-25T08:18:38;6.28;;;5.63;;
13291;SDS011;6714;53.056;8.690;2022-07-25T08:21:21;5.03;;;4.53;;
13291;SDS011;6714;53.056;8.690;2022-07-25T08:24:05;6.35;;;5.70;;
13291;SDS011;6714;53.056;8.690;2022-07-25T08:26:47;5.28;;;4.90;;
13291;SDS011;6714;53.056;8.690;2022-07-25T08:29:29;5.47;;;4.97;;
13291;SDS011;6714;53.056;8.690;2022-07-25T08:32:11;5.38;;;4.97;;
13291;SDS011;6714;53.056;8.690;2022-07-25T08:34:53;5.85;;;5.43;;
13291;SDS011;6714;53.056;8.690;2022-07-25T08:37:35;5.68;;;5.18;;
13291;SDS011;6714;53.056;8.690;2022-07-25T08:40:20;5.50;;;5.10;;
13291;SDS011;6714;53.056;8.690;2022-07-25T08:43:02;4.97;;;4.68;;
13291;SDS011;6714;53.056;8.690;2022-07-25T08:45:46;5.28;;;4.88;;
13291;SDS011;6714;53.056;8.690;2022-07-25T08:48:28;5.50;;;5.00;;
13291;SDS011;6714;53.056;8.690;2022-07-25T08:51:10;5.47;;;5.07;;
13291;SDS011;6714;53.056;8.690;2022-07-25T08:53:52;4.95;;;4.55;;
13291;SDS011;6714;53.056;8.690;2022-07-25T08:56:36;5.40;;;5.05;;
13291;SDS011;6714;53.056;8.690;2022-07-25T08:59:19;5.22;;;4.90;;
13291;SDS011;6714;53.056;8.690;2022-07-25T09:02:01;5.15;;;4.78;;
13291;SDS011;6714;53.056;8.690;2022-07-25T09:04:46;4.88;;;4.57;;
13291;SDS011;6714;53.056;8.690;2022-07-25T09:07:29;4.65;;;4.35;;
13291;SDS011;6714;53.056;8.690;2022-07-25T09:10:12;5.50;;;5.10;;
13291;SDS011;6714;53.056;8.690;2022-07-25T09:12:56;5.22;;;4.82;;
13291;SDS011;6714;53.056;8.690;2022-07-25T09:15:40;4.93;;;4.63;;
13291;SDS011;6714;53.056;8.690;2022-07-25T09:18:23;4.60;;;4.30;;
13291;SDS011;6714;53.056;8.690;2022-07-25T09:21:12;4.72;;;4.43;;
13291;SDS011;6714;53.056;8.690;2022-07-25T09:23:54;4.82;;;4.53;;
13291;SDS011;6714;53.056;8.690;2022-07-25T09:26:43;5.10;;;4.80;;
13291;SDS011;6714;53.056;8.690;2022-07-25T09:29:27;5.03;;;4.63;;
13291;SDS011;6714;53.056;8.690;2022-07-25T09:32:14;4.70;;;4.40;;
13291;SDS011;6714;53.056;8.690;2022-07-25T09:34:57;5.00;;;4.60;;
13291;SDS011;6714;53.056;8.690;2022-07-25T09:37:39;4.45;;;4.15;;
13291;SDS011;6714;53.056;8.690;2022-07-25T09:40:21;5.00;;;4.70;;
13291;SDS011;6714;53.056;8.690;2022-07-25T09:43:04;4.50;;;4.20;;
13291;SDS011;6714;53.056;8.690;2022-07-25T09:45:48;4.55;;;4.22;;
13291;SDS011;6714;53.056;8.690;2022-07-25T09:48:31;5.00;;;4.70;;
13291;SDS011;6714;53.056;8.690;2022-07-25T09:51:13;4.82;;;4.43;;
13291;SDS011;6714;53.056;8.690;2022-07-25T09:53:56;4.22;;;3.97;;
13291;SDS011;6714;53.056;8.690;2022-07-25T09:56:38;4.85;;;4.55;;
13291;SDS011;6714;53.056;8.690;2022-07-25T09:59:20;5.25;;;4.85;;
13291;SDS011;6714;53.056;8.690;2022-07-25T10:02:05;4.90;;;4.60;;
13291;SDS011;6714;53.056;8.690;2022-07-25T10:04:50;4.63;;;4.32;;
13291;SDS011;6714;53.056;8.690;2022-07-25T10:07:37;4.47;;;4.15;;
13291;SDS011;6714;53.056;8.690;2022-07-25T10:10:22;4.53;;;4.22;;
13291;SDS011;6714;53.056;8.690;2022-07-25T10:13:05;4.80;;;4.50;;
13291;SDS011;6714;53.056;8.690;2022-07-25T10:15:50;4.75;;;4.50;;
13291;SDS011;6714;53.056;8.690;2022-07-25T10:18:34;4.90;;;4.50;;
13291;SDS011;6714;53.056;8.690;2022-07-25T10:21:16;4.20;;;3.90;;
13291;SDS011;6714;53.056;8.690;2022-07-25T10:24:00;4.55;;;4.25;;
13291;SDS011;6714;53.056;8.690;2022-07-25T10:26:50;4.35;;;4.07;;
13291;SDS011;6714;53.056;8.690;2022-07-25T10:29:33;5.28;;;4.70;;
13291;SDS011;6714;53.056;8.690;2022-07-25T10:32:15;4.25;;;3.95;;
13291;SDS011;6714;53.056;8.690;2022-07-25T10:34:59;4.80;;;4.45;;
13291;SDS011;6714;53.056;8.690;2022-07-25T10:37:43;4.45;;;4.18;;
13291;SDS011;6714;53.056;8.690;2022-07-25T10:40:26;4.70;;;4.40;;
13291;SDS011;6714;53.056;8.690;2022-07-25T10:43:10;4.60;;;4.30;;
13291;SDS011;6714;53.056;8.690;2022-07-25T10:45:53;4.60;;;4.30;;
13291;SDS011;6714;53.056;8.690;2022-07-25T10:48:36;3.95;;;3.75;;
13291;SDS011;6714;53.056;8.690;2022-07-25T10:51:24;4.97;;;4.60;;
13291;SDS011;6714;53.056;8.690;2022-07-25T10:54:13;4.22;;;3.92;;
13291;SDS011;6714;53.056;8.690;2022-07-25T10:56:56;4.30;;;4.10;;
13291;SDS011;6714;53.056;8.690;2022-07-25T10:59:38;4.40;;;4.10;;
13291;SDS011;6714;53.056;8.690;2022-07-25T11:02:22;4.05;;;3.83;;
13291;SDS011;6714;53.056;8.690;2022-07-25T11:05:05;4.45;;;4.25;;
13291;SDS011;6714;53.056;8.690;2022-07-25T11:07:49;4.10;;;3.90;;
13291;SDS011;6714;53.056;8.690;2022-07-25T11:10:32;4.85;;;4.38;;
13291;SDS011;6714;53.056;8.690;2022-07-25T11:13:15;4.05;;;3.85;;
13291;SDS011;6714;53.056;8.690;2022-07-25T11:15:57;4.30;;;4.00;;
13291;SDS011;6714;53.056;8.690;2022-07-25T11:18:40;4.15;;;3.95;;
13291;SDS011;6714;53.056;8.690;2022-07-25T11:21:22;4.05;;;3.85;;
13291;SDS011;6714;53.056;8.690;2022-07-25T11:24:05;4.18;;;3.97;;
13291;SDS011;6714;53.056;8.690;2022-07-25T11:26:48;4.43;;;4.13;;
13291;SDS011;6714;53.056;8.690;2022-07-25T11:29:30;4.18;;;3.97;;
13291;SDS011;6714;53.056;8.690;2022-07-25T11:32:13;4.20;;;4.00;;
13291;SDS011;6714;53.056;8.690;2022-07-25T11:34:55;4.32;;;4.03;;
13291;SDS011;6714;53.056;8.690;2022-07-25T11:37:38;4.15;;;3.95;;
13291;SDS011;6714;53.056;8.690;2022-07-25T11:40:22;4.25;;;4.00;;
13291;SDS011;6714;53.056;8.690;2022-07-25T11:43:04;4.13;;;3.83;;
13291;SDS011;6714;53.056;8.690;2022-07-25T11:45:54;4.18;;;3.97;;
13291;SDS011;6714;53.056;8.690;2022-07-25T11:48:37;4.50;;;4.20;;
13291;SDS011;6714;53.056;8.690;2022-07-25T11:51:19;4.55;;;4.25;;
13291;SDS011;6714;53.056;8.690;2022-07-25T11:54:06;4.60;;;4.30;;
13291;SDS011;6714;53.056;8.690;2022-07-25T11:56:50;4.18;;;3.95;;
13291;SDS011;6714;53.056;8.690;2022-07-25T11:59:39;4.32;;;4.10;;
13291;SDS011;6714;53.056;8.690;2022-07-25T12:02:23;4.43;;;4.20;;
13291;SDS011;6714;53.056;8.690;2022-07-25T12:05:06;4.80;;;4.40;;
13291;SDS011;6714;53.056;8.690;2022-07-25T12:07:49;4.72;;;4.43;;
13291;SDS011;6714;53.056;8.690;2022-07-25T12:10:32;4.60;;;4.30;;
13291;SDS011;6714;53.056;8.690;2022-07-25T12:13:21;4.40;;;4.13;;
13291;SDS011;6714;53.056;8.690;2022-07-25T12:16:04;4.82;;;4.32;;
13291;SDS011;6714;53.056;8.690;2022-07-25T12:18:46;4.68;;;4.38;;
13291;SDS011;6714;53.056;8.690;2022-07-25T12:21:28;4.15;;;3.95;;
13291;SDS011;6714;53.056;8.690;2022-07-25T12:24:10;4.55;;;4.25;;
13291;SDS011;6714;53.056;8.690;2022-07-25T12:26:53;5.65;;;4.40;;
13291;SDS011;6714;53.056;8.690;2022-07-25T12:29:36;4.10;;;3.90;;
13291;SDS011;6714;53.056;8.690;2022-07-25T12:32:18;4.32;;;4.13;;
13291;SDS011;6714;53.056;8.690;2022-07-25T12:35:01;4.80;;;4.50;;
13291;SDS011;6714;53.056;8.690;2022-07-25T12:37:43;4.75;;;4.45;;
13291;SDS011;6714;53.056;8.690;2022-07-25T12:40:26;4.70;;;4.50;;
13291;SDS011;6714;53.056;8.690;2022-07-25T12:43:08;4.72;;;4.43;;
13291;SDS011;6714;53.056;8.690;2022-07-25T12:45:51;5.13;;;4.82;;
13291;SDS011;6714;53.056;8.690;2022-07-25T12:48:34;5.15;;;4.75;;
13291;SDS011;6714;53.056;8.690;2022-07-25T12:51:16;4.78;;;4.47;;
13291;SDS011;6714;53.056;8.690;2022-07-25T12:53:59;4.72;;;4.43;;
13291;SDS011;6714;53.056;8.690;2022-07-25T12:56:42;5.00;;;4.70;;
13291;SDS011;6714;53.056;8.690;2022-07-25T12:59:24;5.35;;;4.90;;
13291;SDS011;6714;53.056;8.690;2022-07-25T13:02:08;4.55;;;4.25;;
13291;SDS011;6714;53.056;8.690;2022-07-25T13:04:50;4.80;;;4.50;;
13291;SDS011;6714;53.056;8.690;2022-07-25T13:07:32;5.53;;;5.03;;
13291;SDS011;6714;53.056;8.690;2022-07-25T13:10:15;5.50;;;5.10;;
13291;SDS011;6714;53.056;8.690;2022-07-25T13:12:57;5.20;;;4.90;;
13291;SDS011;6714;53.056;8.690;2022-07-25T13:15:39;6.07;;;5.65;;
13291;SDS011;6714;53.056;8.690;2022-07-25T13:18:23;5.68;;;5.28;;
13291;SDS011;6714;53.056;8.690;2022-07-25T13:21:05;5.00;;;4.70;;
13291;SDS011;6714;53.056;8.690;2022-07-25T13:23:47;6.70;;;6.20;;
13291;SDS011;6714;53.056;8.690;2022-07-25T13:26:29;5.40;;;5.00;;
13291;SDS011;6714;53.056;8.690;2022-07-25T13:29:12;6.80;;;6.30;;
13291;SDS011;6714;53.056;8.690;2022-07-25T13:31:54;6.30;;;5.72;;
13291;SDS011;6714;53.056;8.690;2022-07-25T13:34:38;7.10;;;6.40;;
13291;SDS011;6714;53.056;8.690;2022-07-25T13:37:20;5.95;;;5.43;;
13291;SDS011;6714;53.056;8.690;2022-07-25T13:40:02;5.32;;;5.03;;
13291;SDS011;6714;53.056;8.690;2022-07-25T13:42:45;6.15;;;5.75;;
13291;SDS011;6714;53.056;8.690;2022-07-25T13:45:27;6.00;;;5.50;;
13291;SDS011;6714;53.056;8.690;2022-07-25T13:48:09;5.75;;;5.25;;
13291;SDS011;6714;53.056;8.690;2022-07-25T13:50:53;5.22;;;4.88;;
13291;SDS011;6714;53.056;8.690;2022-07-25T13:53:35;5.15;;;4.75;;
13291;SDS011;6714;53.056;8.690;2022-07-25T13:56:17;5.20;;;4.85;;
13291;SDS011;6714;53.056;8.690;2022-07-25T13:59:00;4.40;;;4.10;;
13291;SDS011;6714;53.056;8.690;2022-07-25T14:01:43;4.68;;;4.28;;
13291;SDS011;6714;53.056;8.690;2022-07-25T14:04:26;4.57;;;4.28;;
13291;SDS011;6714;53.056;8.690;2022-07-25T14:07:10;4.25;;;4.05;;
13291;SDS011;6714;53.056;8.690;2022-07-25T14:09:53;4.50;;;4.13;;
13291;SDS011;6714;53.056;8.690;2022-07-25T14:12:36;4.85;;;3.72;;
13291;SDS011;6714;53.056;8.690;2022-07-25T14:15:19;3.70;;;3.50;;
13291;SDS011;6714;53.056;8.690;2022-07-25T14:18:02;3.88;;;3.67;;
13291;SDS011;6714;53.056;8.690;2022-07-25T14:20:44;3.40;;;3.20;;
13291;SDS011;6714;53.056;8.690;2022-07-25T14:23:28;3.50;;;3.30;;
13291;SDS011;6714;53.056;8.690;2022-07-25T14:26:10;3.90;;;3.60;;
13291;SDS011;6714;53.056;8.690;2022-07-25T14:28:53;5.88;;;3.90;;
13291;SDS011;6714;53.056;8.690;2022-07-25T14:31:36;3.72;;;3.42;;
13291;SDS011;6714;53.056;8.690;2022-07-25T14:34:19;3.40;;;3.20;;
13291;SDS011;6714;53.056;8.690;2022-07-25T14:37:01;4.15;;;3.75;;
13291;SDS011;6714;53.056;8.690;2022-07-25T14:39:44;3.40;;;3.20;;
13291;SDS011;6714;53.056;8.690;2022-07-25T14:42:27;3.80;;;3.50;;
13291;SDS011;6714;53.056;8.690;2022-07-25T14:45:09;3.90;;;3.60;;
13291;SDS011;6714;53.056;8.690;2022-07-25T14:47:51;3.90;;;3.60;;
13291;SDS011;6714;53.056;8.690;2022-07-25T14:50:34;4.18;;;3.75;;
13291;SDS011;6714;53.056;8.690;2022-07-25T14:53:16;4.20;;;3.88;;
13291;SDS011;6714;53.056;8.690;2022-07-25T14:55:59;3.67;;;3.47;;
13291;SDS011;6714;53.056;8.690;2022-07-25T14:58:42;3.75;;;3.50;;
13291;SDS011;6714;53.056;8.690;2022-07-25T15:01:24;3.67;;;3.38;;
13291;SDS011;6714;53.056;8.690;2022-07-25T15:04:07;3.97;;;3.60;;
13291;SDS011;6714;53.056;8.690;2022-07-25T15:06:49;3.50;;;3.30;;
13291;SDS011;6714;53.056;8.690;2022-07-25T15:09:31;3.22;;;3.03;;
13291;SDS011;6714;53.056;8.690;2022-07-25T15:12:15;3.10;;;2.90;;
13291;SDS011;6714;53.056;8.690;2022-07-25T15:14:58;3.45;;;3.25;;
13291;SDS011;6714;53.056;8.690;2022-07-25T15:17:41;2.85;;;2.65;;
13291;SDS011;6714;53.056;8.690;2022-07-25T15:20:23;3.10;;;2.80;;
13291;SDS011;6714;53.056;8.690;2022-07-25T15:23:05;2.97;;;2.72;;
13291;SDS011;6714;53.056;8.690;2022-07-25T15:25:47;2.67;;;2.58;;
13291;SDS011;6714;53.056;8.690;2022-07-25T15:28:32;2.60;;;2.50;;
13291;SDS011;6714;53.056;8.690;2022-07-25T15:31:15;2.58;;;2.47;;
13291;SDS011;6714;53.056;8.690;2022-07-25T15:33:57;2.80;;;2.60;;
13291;SDS011;6714;53.056;8.690;2022-07-25T15:36:39;2.58;;;2.45;;
13291;SDS011;6714;53.056;8.690;2022-07-25T15:39:21;2.95;;;2.35;;
13291;SDS011;6714;53.056;8.690;2022-07-25T15:42:04;2.45;;;2.30;;
13291;SDS011;6714;53.056;8.690;2022-07-25T15:44:47;2.40;;;2.20;;
13291;SDS011;6714;53.056;8.690;2022-07-25T15:47:31;2.20;;;2.10;;
13291;SDS011;6714;53.056;8.690;2022-07-25T15:50:13;2.15;;;2.05;;
13291;SDS011;6714;53.056;8.690;2022-07-25T15:52:55;2.70;;;2.30;;
13291;SDS011;6714;53.056;8.690;2022-07-25T15:55:38;2.40;;;2.20;;
13291;SDS011;6714;53.056;8.690;2022-07-25T15:58:21;2.90;;;2.50;;
13291;SDS011;6714;53.056;8.690;2022-07-25T16:01:04;2.63;;;2.30;;
13291;SDS011;6714;53.056;8.690;2022-07-25T16:03:47;4.40;;;2.22;;
13291;SDS011;6714;53.056;8.690;2022-07-25T16:06:29;2.20;;;2.00;;
13291;SDS011;6714;53.056;8.690;2022-07-25T16:09:11;2.50;;;2.30;;
13291;SDS011;6714;53.056;8.690;2022-07-25T16:11:56;2.67;;;2.15;;
13291;SDS011;6714;53.056;8.690;2022-07-25T16:14:38;2.45;;;2.00;;
13291;SDS011;6714;53.056;8.690;2022-07-25T16:17:21;2.20;;;2.00;;
13291;SDS011;6714;53.056;8.690;2022-07-25T16:20:05;1.90;;;1.80;;
13291;SDS011;6714;53.056;8.690;2022-07-25T16:22:48;2.05;;;1.95;;
13291;SDS011;6714;53.056;8.690;2022-07-25T16:25:34;2.80;;;2.08;;
13291;SDS011;6714;53.056;8.690;2022-07-25T16:28:16;3.45;;;2.13;;
13291;SDS011;6714;53.056;8.690;2022-07-25T16:30:59;2.97;;;2.00;;
13291;SDS011;6714;53.056;8.690;2022-07-25T16:33:42;1.80;;;1.70;;
13291;SDS011;6714;53.056;8.690;2022-07-25T16:36:25;1.77;;;1.67;;